sensor_id;sensor_type;location;lat;lon;timestamp;pressure;altitude;pressure_sealevel;temperature;humidity
15477;BME280;7840;42.702;23.296;2022-10-16T00:02:25;95708.88;;;8.46;100.00
15477;BME280;7840;42.702;23.296;2022-10-16T00:04:58;95703.44;;;8.41;100.00
15477;BME280;7840;42.702;23.296;2022-10-16T00:07:27;95709.16;;;8.38;100.00
15477;BME280;7840;42.702;23.296;2022-10-16T00:09:54;95714.00;;;8.41;100.00
15477;BME280;7840;42.702;23.296;2022-10-16T00:12:22;95712.19;;;8.35;100.00
15477;BME280;7840;42.702;23.296;2022-10-16T00:14:50;95720.56;;;8.32;100.00
15477;BME280;7840;42.702;23.296;2022-10-16T00:17:18;95722.97;;;8.33;100.00
15477;BME280;7840;42.702;23.296;2022-10-16T00:19:47;95715.66;;;8.35;100.00
15477;BME280;7840;42.702;23.296;2022-10-16T00:22:19;95721.34;;;8.39;100.00
15477;BME280;7840;42.702;23.296;2022-10-16T00:24:52;95725.38;;;8.35;100.00
15477;BME280;7840;42.702;23.296;2022-10-16T00:27:22;95729.47;;;8.06;100.00
15477;BME280;7840;42.702;23.296;2022-10-16T00:29:50;95735.16;;;7.78;100.00
15477;BME280;7840;42.702;23.296;2022-10-16T00:32:18;95733.97;;;7.67;100.00
15477;BME280;7840;42.702;23.296;2022-10-16T00:34:47;95737.19;;;7.76;100.00
15477;BME280;7840;42.702;23.296;2022-10-16T00:37:14;95735.81;;;7.98;100.00
15477;BME280;7840;42.702;23.296;2022-10-16T00:39:42;95730.53;;;7.66;100.00
15477;BME280;7840;42.702;23.296;2022-10-16T00:42:13;95723.50;;;7.54;100.00
15477;BME280;7840;42.702;23.296;2022-10-16T00:44:48;95726.78;;;7.81;100.00
15477;BME280;7840;42.702;23.296;2022-10-16T00:47:21;95722.91;;;7.90;100.00
15477;BME280;7840;42.702;23.296;2022-10-16T00:49:56;95722.41;;;8.00;100.00
15477;BME280;7840;42.702;23.296;2022-10-16T00:52:25;95725.22;;;8.05;100.00
15477;BME280;7840;42.702;23.296;2022-10-16T00:54:53;95719.50;;;8.08;100.00
15477;BME280;7840;42.702;23.296;2022-10-16T00:57:21;95721.94;;;8.09;100.00
15477;BME280;7840;42.702;23.296;2022-10-16T00:59:50;95725.28;;;7.98;100.00
15477;BME280;7840;42.702;23.296;2022-10-16T01:02:18;95731.72;;;8.02;100.00
15477;BME280;7840;42.702;23.296;2022-10-16T01:04:48;95729.88;;;8.03;100.00
15477;BME280;7840;42.702;23.296;2022-10-16T01:07:26;95729.69;;;8.04;100.00
15477;BME280;7840;42.702;23.296;2022-10-16T01:10:10;95736.38;;;8.07;100.00
15477;BME280;7840;42.702;23.296;2022-10-16T01:12:50;95736.81;;;8.04;100.00
15477;BME280;7840;42.702;23.296;2022-10-16T01:15:24;95735.06;;;7.91;100.00
15477;BME280;7840;42.702;23.296;2022-10-16T01:17:58;95736.69;;;7.92;100.00
15477;BME280;7840;42.702;23.296;2022-10-16T01:20:30;95728.19;;;7.90;100.00
15477;BME280;7840;42.702;23.296;2022-10-16T01:23:20;95727.41;;;7.83;100.00
15477;BME280;7840;42.702;23.296;2022-10-16T01:26:13;95721.25;;;7.89;100.00
15477;BME280;7840;42.702;23.296;2022-10-16T01:28:46;95719.22;;;7.91;100.00
15477;BME280;7840;42.702;23.296;2022-10-16T01:31:19;95723.72;;;7.90;100.00
15477;BME280;7840;42.702;23.296;2022-10-16T01:33:56;95723.53;;;7.85;100.00
15477;BME280;7840;42.702;23.296;2022-10-16T01:36:28;95720.66;;;7.87;100.00
15477;BME280;7840;42.702;23.296;2022-10-16T01:39:01;95727.72;;;7.61;100.00
15477;BME280;7840;42.702;23.296;2022-10-16T01:41:47;95723.06;;;7.63;100.00
15477;BME280;7840;42.702;23.296;2022-10-16T01:44:27;95732.56;;;7.26;100.00
15477;BME280;7840;42.702;23.296;2022-10-16T01:46:57;95738.31;;;7.10;100.00
15477;BME280;7840;42.702;23.296;2022-10-16T01:49:31;95734.28;;;7.07;100.00
15477;BME280;7840;42.702;23.296;2022-10-16T01:54:49;95729.06;;;6.88;100.00
15477;BME280;7840;42.702;23.296;2022-10-16T01:57:18;95732.25;;;7.03;100.00
15477;BME280;7840;42.702;23.296;2022-10-16T02:00:05;95744.75;;;7.21;100.00
15477;BME280;7840;42.702;23.296;2022-10-16T02:02:35;95739.50;;;7.21;100.00
15477;BME280;7840;42.702;23.296;2022-10-16T02:05:08;95736.00;;;7.27;100.00
15477;BME280;7840;42.702;23.296;2022-10-16T02:07:37;95750.25;;;7.12;100.00
15477;BME280;7840;42.702;23.296;2022-10-16T02:10:05;95749.47;;;6.92;100.00
15477;BME280;7840;42.702;23.296;2022-10-16T02:12:35;95744.41;;;6.97;100.00
15477;BME280;7840;42.702;23.296;2022-10-16T02:15:08;95753.69;;;7.06;100.00
15477;BME280;7840;42.702;23.296;2022-10-16T02:17:36;95755.34;;;7.07;100.00
15477;BME280;7840;42.702;23.296;2022-10-16T02:20:04;95763.03;;;7.02;100.00
15477;BME280;7840;42.702;23.296;2022-10-16T02:22:35;95756.16;;;7.01;100.00
15477;BME280;7840;42.702;23.296;2022-10-16T02:25:08;95765.09;;;6.94;100.00
15477;BME280;7840;42.702;23.296;2022-10-16T02:27:43;95759.19;;;6.98;100.00
15477;BME280;7840;42.702;23.296;2022-10-16T02:30:21;95764.66;;;7.03;100.00
15477;BME280;7840;42.702;23.296;2022-10-16T02:33:01;95769.56;;;6.93;100.00
15477;BME280;7840;42.702;23.296;2022-10-16T02:35:41;95766.31;;;6.91;100.00
15477;BME280;7840;42.702;23.296;2022-10-16T02:38:10;95760.69;;;6.68;100.00
15477;BME280;7840;42.702;23.296;2022-10-16T02:40:39;95758.84;;;6.75;100.00
15477;BME280;7840;42.702;23.296;2022-10-16T02:43:07;95765.13;;;6.87;100.00
15477;BME280;7840;42.702;23.296;2022-10-16T02:46:05;95762.25;;;6.95;100.00
15477;BME280;7840;42.702;23.296;2022-10-16T02:48:35;95773.97;;;6.99;100.00
15477;BME280;7840;42.702;23.296;2022-10-16T02:51:07;95775.81;;;6.92;100.00
15477;BME280;7840;42.702;23.296;2022-10-16T02:53:39;95777.66;;;6.78;100.00
15477;BME280;7840;42.702;23.296;2022-10-16T02:56:08;95783.78;;;6.66;100.00
15477;BME280;7840;42.702;23.296;2022-10-16T02:58:37;95777.69;;;6.58;100.00
15477;BME280;7840;42.702;23.296;2022-10-16T04:28:37;95785.44;;;5.59;100.00
15477;BME280;7840;42.702;23.296;2022-10-16T04:31:05;95791.75;;;5.65;100.00
15477;BME280;7840;42.702;23.296;2022-10-16T04:33:33;95788.13;;;5.72;100.00
15477;BME280;7840;42.702;23.296;2022-10-16T04:36:04;95792.19;;;5.88;100.00
15477;BME280;7840;42.702;23.296;2022-10-16T04:38:33;95797.88;;;5.85;100.00
15477;BME280;7840;42.702;23.296;2022-10-16T04:41:03;95787.78;;;5.95;100.00
15477;BME280;7840;42.702;23.296;2022-10-16T04:43:31;95795.84;;;5.87;100.00
15477;BME280;7840;42.702;23.296;2022-10-16T04:46:09;95801.50;;;5.78;100.00
15477;BME280;7840;42.702;23.296;2022-10-16T04:48:37;95804.28;;;5.76;100.00
15477;BME280;7840;42.702;23.296;2022-10-16T04:51:05;95807.75;;;5.90;100.00
15477;BME280;7840;42.702;23.296;2022-10-16T04:53:33;95809.66;;;6.02;100.00
15477;BME280;7840;42.702;23.296;2022-10-16T04:56:04;95813.72;;;6.12;100.00
15477;BME280;7840;42.702;23.296;2022-10-16T04:58:32;95821.81;;;6.17;100.00
15477;BME280;7840;42.702;23.296;2022-10-16T05:01:01;95824.28;;;6.25;100.00
15477;BME280;7840;42.702;23.296;2022-10-16T05:03:29;95821.00;;;6.29;100.00
15477;BME280;7840;42.702;23.296;2022-10-16T05:05:56;95825.09;;;6.32;100.00
15477;BME280;7840;42.702;23.296;2022-10-16T05:08:25;95828.31;;;6.41;100.00
15477;BME280;7840;42.702;23.296;2022-10-16T05:11:16;95831.16;;;6.52;100.00
15477;BME280;7840;42.702;23.296;2022-10-16T05:13:44;95838.06;;;6.53;100.00
15477;BME280;7840;42.702;23.296;2022-10-16T05:16:30;95836.03;;;6.55;100.00
15477;BME280;7840;42.702;23.296;2022-10-16T05:18:58;95833.38;;;6.69;100.00
15477;BME280;7840;42.702;23.296;2022-10-16T07:07:11;95938.03;;;10.84;100.00
15477;BME280;7840;42.702;23.296;2022-10-16T07:09:45;95955.13;;;11.00;100.00
15477;BME280;7840;42.702;23.296;2022-10-16T07:12:13;95952.97;;;11.08;100.00
15477;BME280;7840;42.702;23.296;2022-10-16T07:14:40;95950.44;;;11.25;100.00
15477;BME280;7840;42.702;23.296;2022-10-16T07:17:08;95954.97;;;11.36;100.00
15477;BME280;7840;42.702;23.296;2022-10-16T07:19:35;95951.28;;;11.61;100.00
15477;BME280;7840;42.702;23.296;2022-10-16T07:22:03;95953.59;;;11.69;100.00
15477;BME280;7840;42.702;23.296;2022-10-16T07:24:33;95951.88;;;11.74;100.00
15477;BME280;7840;42.702;23.296;2022-10-16T07:27:00;95962.72;;;11.85;100.00
15477;BME280;7840;42.702;23.296;2022-10-16T07:29:28;95964.34;;;11.97;100.00
15477;BME280;7840;42.702;23.296;2022-10-16T07:31:55;95960.50;;;11.93;100.00
15477;BME280;7840;42.702;23.296;2022-10-16T07:34:23;95955.97;;;12.17;100.00
15477;BME280;7840;42.702;23.296;2022-10-16T07:36:52;95962.91;;;12.18;100.00
15477;BME280;7840;42.702;23.296;2022-10-16T07:39:20;95964.66;;;12.13;99.15
15477;BME280;7840;42.702;23.296;2022-10-16T07:41:49;95962.03;;;12.41;99.32
15477;BME280;7840;42.702;23.296;2022-10-16T07:44:17;95961.34;;;12.46;97.49
15477;BME280;7840;42.702;23.296;2022-10-16T07:46:44;95962.13;;;12.46;96.88
15477;BME280;7840;42.702;23.296;2022-10-16T07:49:26;95960.44;;;12.69;96.89
15477;BME280;7840;42.702;23.296;2022-10-16T07:51:54;95968.63;;;12.96;94.25
15477;BME280;7840;42.702;23.296;2022-10-16T07:54:21;95968.31;;;12.92;93.26
15477;BME280;7840;42.702;23.296;2022-10-16T07:56:51;95971.25;;;13.07;91.62
15477;BME280;7840;42.702;23.296;2022-10-16T07:59:19;95968.66;;;13.41;90.60
15477;BME280;7840;42.702;23.296;2022-10-16T08:01:46;95967.91;;;13.62;88.45
15477;BME280;7840;42.702;23.296;2022-10-16T08:04:16;95969.72;;;13.79;85.81
15477;BME280;7840;42.702;23.296;2022-10-16T08:06:43;95965.13;;;13.91;84.45
15477;BME280;7840;42.702;23.296;2022-10-16T08:09:32;95972.84;;;14.09;82.62
15477;BME280;7840;42.702;23.296;2022-10-16T08:12:01;95972.47;;;14.22;80.96
15477;BME280;7840;42.702;23.296;2022-10-16T08:14:54;95969.66;;;14.51;77.76
15477;BME280;7840;42.702;23.296;2022-10-16T08:17:30;95961.13;;;14.49;76.24
15477;BME280;7840;42.702;23.296;2022-10-16T08:19:58;95963.41;;;14.62;76.93
15477;BME280;7840;42.702;23.296;2022-10-16T08:22:30;95958.16;;;14.72;74.90
15477;BME280;7840;42.702;23.296;2022-10-16T08:24:57;95966.31;;;14.88;74.30
15477;BME280;7840;42.702;23.296;2022-10-16T08:27:32;95962.44;;;15.00;72.12
15477;BME280;7840;42.702;23.296;2022-10-16T08:30:01;95952.78;;;14.94;73.33
15477;BME280;7840;42.702;23.296;2022-10-16T08:32:39;95961.28;;;15.18;72.13
15477;BME280;7840;42.702;23.296;2022-10-16T08:35:09;95960.31;;;15.29;69.04
15477;BME280;7840;42.702;23.296;2022-10-16T08:37:37;95958.91;;;15.22;69.10
15477;BME280;7840;42.702;23.296;2022-10-16T08:40:23;95952.94;;;15.42;68.71
15477;BME280;7840;42.702;23.296;2022-10-16T08:43:08;95953.50;;;15.76;67.76
15477;BME280;7840;42.702;23.296;2022-10-16T08:46:15;95953.91;;;16.00;66.39
15477;BME280;7840;42.702;23.296;2022-10-16T08:48:53;95955.06;;;16.14;65.67
15477;BME280;7840;42.702;23.296;2022-10-16T08:51:25;95958.81;;;16.13;64.68
15477;BME280;7840;42.702;23.296;2022-10-16T08:54:04;95962.13;;;16.35;62.78
15477;BME280;7840;42.702;23.296;2022-10-16T08:56:31;95959.81;;;16.64;61.48
15477;BME280;7840;42.702;23.296;2022-10-16T08:59:01;95969.00;;;16.84;60.46
15477;BME280;7840;42.702;23.296;2022-10-16T09:01:38;95966.19;;;16.58;60.71
15477;BME280;7840;42.702;23.296;2022-10-16T09:04:39;95970.91;;;16.88;57.97
15477;BME280;7840;42.702;23.296;2022-10-16T09:07:15;95964.47;;;16.94;57.79
15477;BME280;7840;42.702;23.296;2022-10-16T09:10:02;95966.09;;;17.06;55.61
15477;BME280;7840;42.702;23.296;2022-10-16T09:12:48;95958.91;;;17.32;52.87
15477;BME280;7840;42.702;23.296;2022-10-16T09:15:37;95958.63;;;17.69;53.83
15477;BME280;7840;42.702;23.296;2022-10-16T09:18:10;95954.59;;;17.56;52.65
15477;BME280;7840;42.702;23.296;2022-10-16T09:20:51;95956.50;;;17.50;52.84
15477;BME280;7840;42.702;23.296;2022-10-16T09:23:26;95957.59;;;17.75;51.98
15477;BME280;7840;42.702;23.296;2022-10-16T09:25:55;95952.13;;;18.16;50.62
15477;BME280;7840;42.702;23.296;2022-10-16T09:28:25;95958.28;;;18.26;49.22
15477;BME280;7840;42.702;23.296;2022-10-16T09:30:55;95955.84;;;18.35;49.33
15477;BME280;7840;42.702;23.296;2022-10-16T09:33:25;95956.91;;;18.39;48.59
15477;BME280;7840;42.702;23.296;2022-10-16T09:35:57;95952.50;;;18.74;47.65
15477;BME280;7840;42.702;23.296;2022-10-16T09:38:27;95957.16;;;19.02;46.92
15477;BME280;7840;42.702;23.296;2022-10-16T09:40:56;95957.06;;;19.18;45.89
15477;BME280;7840;42.702;23.296;2022-10-16T09:43:26;95953.94;;;19.00;46.23
15477;BME280;7840;42.702;23.296;2022-10-16T09:46:09;95956.09;;;18.98;47.19
15477;BME280;7840;42.702;23.296;2022-10-16T09:48:53;95944.16;;;19.20;46.55
15477;BME280;7840;42.702;23.296;2022-10-16T09:51:25;95947.19;;;19.42;45.95
15477;BME280;7840;42.702;23.296;2022-10-16T09:54:01;95939.81;;;19.63;45.15
15477;BME280;7840;42.702;23.296;2022-10-16T09:56:31;95938.56;;;19.50;45.49
15477;BME280;7840;42.702;23.296;2022-10-16T09:59:00;95939.50;;;19.70;45.05
15477;BME280;7840;42.702;23.296;2022-10-16T10:01:36;95935.00;;;19.89;44.45
15477;BME280;7840;42.702;23.296;2022-10-16T10:04:06;95944.16;;;19.88;44.08
15477;BME280;7840;42.702;23.296;2022-10-16T10:06:35;95932.16;;;20.04;44.12
15477;BME280;7840;42.702;23.296;2022-10-16T10:09:16;95939.03;;;20.39;43.49
15477;BME280;7840;42.702;23.296;2022-10-16T10:11:50;95932.28;;;20.42;43.35
15477;BME280;7840;42.702;23.296;2022-10-16T10:14:24;95935.72;;;20.23;44.44
15477;BME280;7840;42.702;23.296;2022-10-16T10:17:08;95927.56;;;19.81;44.89
15477;BME280;7840;42.702;23.296;2022-10-16T10:19:47;95930.97;;;20.15;44.52
15477;BME280;7840;42.702;23.296;2022-10-16T10:22:39;95921.19;;;20.25;43.96
15477;BME280;7840;42.702;23.296;2022-10-16T10:25:36;95922.81;;;20.68;43.53
15477;BME280;7840;42.702;23.296;2022-10-16T10:28:24;95917.44;;;21.06;43.23
15477;BME280;7840;42.702;23.296;2022-10-16T10:31:01;95910.69;;;20.90;43.16
15477;BME280;7840;42.702;23.296;2022-10-16T10:33:41;95915.19;;;21.13;42.79
15477;BME280;7840;42.702;23.296;2022-10-16T10:36:22;95905.28;;;20.90;43.59
15477;BME280;7840;42.702;23.296;2022-10-16T10:38:56;95903.75;;;21.21;42.76
15477;BME280;7840;42.702;23.296;2022-10-16T10:44:34;95894.88;;;21.21;42.00
15477;BME280;7840;42.702;23.296;2022-10-16T10:47:10;95901.25;;;21.25;42.12
15477;BME280;7840;42.702;23.296;2022-10-16T10:49:54;95884.81;;;21.59;41.71
15477;BME280;7840;42.702;23.296;2022-10-16T10:52:41;95898.84;;;21.89;40.90
15477;BME280;7840;42.702;23.296;2022-10-16T10:55:20;95890.47;;;21.90;40.71
15477;BME280;7840;42.702;23.296;2022-10-16T11:01:08;95885.28;;;21.94;41.11
15477;BME280;7840;42.702;23.296;2022-10-16T11:04:03;95877.44;;;22.11;41.09
15477;BME280;7840;42.702;23.296;2022-10-16T11:06:44;95877.44;;;22.25;40.41
15477;BME280;7840;42.702;23.296;2022-10-16T11:09:15;95869.88;;;22.08;40.59
15477;BME280;7840;42.702;23.296;2022-10-16T11:11:46;95872.31;;;22.23;40.52
15477;BME280;7840;42.702;23.296;2022-10-16T11:14:31;95870.31;;;22.29;39.30
15477;BME280;7840;42.702;23.296;2022-10-16T11:17:06;95864.91;;;22.43;38.90
15477;BME280;7840;42.702;23.296;2022-10-16T11:19:39;95867.03;;;22.18;39.86
15477;BME280;7840;42.702;23.296;2022-10-16T11:22:16;95865.94;;;22.19;39.37
15477;BME280;7840;42.702;23.296;2022-10-16T11:25:00;95863.53;;;22.18;39.61
15477;BME280;7840;42.702;23.296;2022-10-16T11:27:40;95858.13;;;22.45;39.39
15477;BME280;7840;42.702;23.296;2022-10-16T11:30:18;95850.66;;;22.64;39.19
15477;BME280;7840;42.702;23.296;2022-10-16T11:32:56;95865.84;;;22.74;39.07
15477;BME280;7840;42.702;23.296;2022-10-16T11:35:39;95862.25;;;22.92;38.42
15477;BME280;7840;42.702;23.296;2022-10-16T11:38:21;95855.47;;;23.26;37.40
15477;BME280;7840;42.702;23.296;2022-10-16T11:40:56;95851.06;;;23.30;38.00
15477;BME280;7840;42.702;23.296;2022-10-16T11:43:52;95860.03;;;23.17;36.98
15477;BME280;7840;42.702;23.296;2022-10-16T11:46:28;95858.47;;;23.69;36.29
15477;BME280;7840;42.702;23.296;2022-10-16T11:49:00;95864.69;;;23.70;36.45
15477;BME280;7840;42.702;23.296;2022-10-16T11:51:36;95858.50;;;23.78;36.31
15477;BME280;7840;42.702;23.296;2022-10-16T11:54:16;95862.84;;;23.57;36.20
15477;BME280;7840;42.702;23.296;2022-10-16T11:56:50;95858.19;;;23.48;36.05
15477;BME280;7840;42.702;23.296;2022-10-16T11:59:25;95863.53;;;23.62;35.51
15477;BME280;7840;42.702;23.296;2022-10-16T12:02:32;95862.03;;;23.79;36.09
15477;BME280;7840;42.702;23.296;2022-10-16T12:07:39;95862.00;;;24.10;35.62
15477;BME280;7840;42.702;23.296;2022-10-16T12:10:20;95850.88;;;24.20;35.09
15477;BME280;7840;42.702;23.296;2022-10-16T12:13:02;95848.03;;;24.25;35.03
15477;BME280;7840;42.702;23.296;2022-10-16T12:15:37;95852.72;;;24.42;32.58
15477;BME280;7840;42.702;23.296;2022-10-16T12:18:07;95853.34;;;24.39;33.23
15477;BME280;7840;42.702;23.296;2022-10-16T12:20:55;95855.34;;;24.16;33.45
15477;BME280;7840;42.702;23.296;2022-10-16T12:23:25;95856.06;;;23.45;34.77
15477;BME280;7840;42.702;23.296;2022-10-16T12:25:59;95855.16;;;23.81;34.13
15477;BME280;7840;42.702;23.296;2022-10-16T12:28:29;95861.97;;;23.70;34.67
15477;BME280;7840;42.702;23.296;2022-10-16T12:30:59;95860.25;;;24.14;33.82
15477;BME280;7840;42.702;23.296;2022-10-16T12:33:29;95850.03;;;24.50;33.30
15477;BME280;7840;42.702;23.296;2022-10-16T12:35:59;95858.97;;;24.51;33.79
15477;BME280;7840;42.702;23.296;2022-10-16T12:38:29;95857.66;;;24.48;32.67
15477;BME280;7840;42.702;23.296;2022-10-16T12:41:04;95853.25;;;24.87;32.17
15477;BME280;7840;42.702;23.296;2022-10-16T12:43:41;95847.06;;;25.13;31.37
15477;BME280;7840;42.702;23.296;2022-10-16T12:46:35;95855.19;;;25.30;31.60
15477;BME280;7840;42.702;23.296;2022-10-16T12:49:30;95854.25;;;25.08;31.63
15477;BME280;7840;42.702;23.296;2022-10-16T12:51:58;95859.00;;;25.29;31.37
15477;BME280;7840;42.702;23.296;2022-10-16T12:54:31;95858.53;;;24.92;31.82
15477;BME280;7840;42.702;23.296;2022-10-16T12:57:29;95856.47;;;25.15;32.22
15477;BME280;7840;42.702;23.296;2022-10-16T13:00:05;95852.22;;;25.70;30.89
15477;BME280;7840;42.702;23.296;2022-10-16T13:05:59;95869.50;;;25.39;31.01
15477;BME280;7840;42.702;23.296;2022-10-16T13:11:54;95870.38;;;25.95;29.89
15477;BME280;7840;42.702;23.296;2022-10-16T13:14:56;95861.13;;;26.26;28.97
15477;BME280;7840;42.702;23.296;2022-10-16T13:17:38;95864.34;;;26.57;28.63
15477;BME280;7840;42.702;23.296;2022-10-16T13:20:18;95846.84;;;26.08;28.80
15477;BME280;7840;42.702;23.296;2022-10-16T13:23:18;95851.81;;;26.44;28.51
15477;BME280;7840;42.702;23.296;2022-10-16T13:26:02;95861.31;;;26.80;28.82
15477;BME280;7840;42.702;23.296;2022-10-16T13:28:35;95857.91;;;27.12;28.91
15477;BME280;7840;42.702;23.296;2022-10-16T13:31:15;95859.53;;;27.79;27.81
15477;BME280;7840;42.702;23.296;2022-10-16T13:33:58;95861.84;;;28.51;27.45
15477;BME280;7840;42.702;23.296;2022-10-16T13:36:28;95861.94;;;28.91;26.42
15477;BME280;7840;42.702;23.296;2022-10-16T13:39:10;95859.13;;;29.43;26.18
15477;BME280;7840;42.702;23.296;2022-10-16T13:41:38;95860.44;;;29.34;25.55
15477;BME280;7840;42.702;23.296;2022-10-16T13:44:14;95861.59;;;28.80;26.34
15477;BME280;7840;42.702;23.296;2022-10-16T13:46:43;95859.72;;;29.09;25.28
15477;BME280;7840;42.702;23.296;2022-10-16T13:49:15;95869.06;;;29.64;24.76
15477;BME280;7840;42.702;23.296;2022-10-16T13:51:54;95865.44;;;30.04;24.10
15477;BME280;7840;42.702;23.296;2022-10-16T13:54:37;95867.19;;;29.80;23.42
15477;BME280;7840;42.702;23.296;2022-10-16T13:57:05;95871.31;;;29.90;23.34
15477;BME280;7840;42.702;23.296;2022-10-16T13:59:37;95873.50;;;29.40;24.15
15477;BME280;7840;42.702;23.296;2022-10-16T14:02:26;95871.34;;;29.34;24.25
15477;BME280;7840;42.702;23.296;2022-10-16T14:04:58;95878.53;;;29.26;24.09
15477;BME280;7840;42.702;23.296;2022-10-16T14:07:27;95877.19;;;29.20;24.39
15477;BME280;7840;42.702;23.296;2022-10-16T14:09:56;95874.41;;;29.88;23.43
15477;BME280;7840;42.702;23.296;2022-10-16T14:12:25;95874.16;;;29.93;23.61
15477;BME280;7840;42.702;23.296;2022-10-16T14:14:58;95874.63;;;30.27;23.16
15477;BME280;7840;42.702;23.296;2022-10-16T14:17:38;95870.81;;;31.76;22.22
15477;BME280;7840;42.702;23.296;2022-10-16T14:20:14;95869.41;;;32.28;20.94
15477;BME280;7840;42.702;23.296;2022-10-16T14:22:47;95871.03;;;31.44;21.53
15477;BME280;7840;42.702;23.296;2022-10-16T14:25:41;95877.69;;;29.94;23.23
15477;BME280;7840;42.702;23.296;2022-10-16T14:28:17;95881.03;;;29.31;23.34
15477;BME280;7840;42.702;23.296;2022-10-16T14:30:53;95880.47;;;28.98;23.90
15477;BME280;7840;42.702;23.296;2022-10-16T14:33:31;95880.66;;;29.05;23.56
15477;BME280;7840;42.702;23.296;2022-10-16T14:36:02;95888.94;;;27.98;24.32
15477;BME280;7840;42.702;23.296;2022-10-16T14:38:31;95892.78;;;27.97;24.95
15477;BME280;7840;42.702;23.296;2022-10-16T14:41:00;95897.88;;;27.87;24.74
15477;BME280;7840;42.702;23.296;2022-10-16T14:43:44;95891.06;;;27.26;25.92
15477;BME280;7840;42.702;23.296;2022-10-16T14:46:32;95894.59;;;27.60;25.65
15477;BME280;7840;42.702;23.296;2022-10-16T14:49:15;95894.69;;;27.31;26.10
15477;BME280;7840;42.702;23.296;2022-10-16T14:51:45;95901.53;;;28.03;25.28
15477;BME280;7840;42.702;23.296;2022-10-16T14:54:18;95903.38;;;27.03;25.95
15477;BME280;7840;42.702;23.296;2022-10-16T14:56:49;95905.78;;;26.07;27.52
15477;BME280;7840;42.702;23.296;2022-10-16T14:59:20;95911.34;;;25.12;28.46
15477;BME280;7840;42.702;23.296;2022-10-16T15:01:53;95902.69;;;25.01;29.25
15477;BME280;7840;42.702;23.296;2022-10-16T15:04:27;95905.81;;;24.51;29.21
15477;BME280;7840;42.702;23.296;2022-10-16T15:06:58;95910.53;;;24.06;30.20
15477;BME280;7840;42.702;23.296;2022-10-16T15:09:25;95915.94;;;24.06;30.10
15477;BME280;7840;42.702;23.296;2022-10-16T15:11:53;95913.59;;;23.60;31.06
15477;BME280;7840;42.702;23.296;2022-10-16T15:14:20;95917.97;;;22.88;32.03
15477;BME280;7840;42.702;23.296;2022-10-16T15:16:48;95918.47;;;22.08;33.54
15477;BME280;7840;42.702;23.296;2022-10-16T15:19:16;95927.28;;;20.97;35.12
15477;BME280;7840;42.702;23.296;2022-10-16T15:21:48;95931.47;;;20.41;36.28
15477;BME280;7840;42.702;23.296;2022-10-16T15:24:17;95936.38;;;19.57;37.97
15477;BME280;7840;42.702;23.296;2022-10-16T15:26:45;95939.47;;;18.96;39.14
15477;BME280;7840;42.702;23.296;2022-10-16T15:29:15;95926.53;;;18.54;39.99
15477;BME280;7840;42.702;23.296;2022-10-16T15:31:43;95938.72;;;18.26;40.89
15477;BME280;7840;42.702;23.296;2022-10-16T15:34:14;95938.25;;;17.93;41.44
15477;BME280;7840;42.702;23.296;2022-10-16T15:36:44;95942.56;;;17.74;42.23
15477;BME280;7840;42.702;23.296;2022-10-16T15:39:17;95940.69;;;17.29;42.81
15477;BME280;7840;42.702;23.296;2022-10-16T15:42:21;95952.22;;;17.24;43.45
15477;BME280;7840;42.702;23.296;2022-10-16T15:44:50;95960.75;;;17.11;44.02
15477;BME280;7840;42.702;23.296;2022-10-16T15:47:18;95965.00;;;16.91;44.32
15477;BME280;7840;42.702;23.296;2022-10-16T15:49:46;95961.69;;;16.64;45.20
15477;BME280;7840;42.702;23.296;2022-10-16T15:52:17;95962.69;;;16.42;45.55
15477;BME280;7840;42.702;23.296;2022-10-16T15:54:46;95973.84;;;16.29;45.70
15477;BME280;7840;42.702;23.296;2022-10-16T15:57:14;95976.53;;;16.29;45.91
15477;BME280;7840;42.702;23.296;2022-10-16T15:59:42;95977.19;;;16.04;46.73
15477;BME280;7840;42.702;23.296;2022-10-16T16:02:10;95980.91;;;16.03;46.54
15477;BME280;7840;42.702;23.296;2022-10-16T16:04:38;95985.22;;;16.09;46.46
15477;BME280;7840;42.702;23.296;2022-10-16T16:07:05;95983.53;;;15.98;46.74
15477;BME280;7840;42.702;23.296;2022-10-16T16:09:34;95991.91;;;16.07;47.08
15477;BME280;7840;42.702;23.296;2022-10-16T16:12:06;95988.94;;;16.03;47.44
15477;BME280;7840;42.702;23.296;2022-10-16T16:14:33;95995.44;;;15.75;48.42
15477;BME280;7840;42.702;23.296;2022-10-16T16:17:01;95995.38;;;15.65;48.53
15477;BME280;7840;42.702;23.296;2022-10-16T16:19:29;96005.53;;;15.68;48.31
15477;BME280;7840;42.702;23.296;2022-10-16T16:21:58;96009.53;;;15.71;48.54
15477;BME280;7840;42.702;23.296;2022-10-16T16:24:25;96006.63;;;15.72;48.50
15477;BME280;7840;42.702;23.296;2022-10-16T16:26:53;96012.47;;;15.69;48.44
15477;BME280;7840;42.702;23.296;2022-10-16T16:29:22;96014.88;;;15.66;48.49
15477;BME280;7840;42.702;23.296;2022-10-16T16:31:50;96019.63;;;15.64;48.21
15477;BME280;7840;42.702;23.296;2022-10-16T16:34:23;96023.06;;;15.59;48.91
15477;BME280;7840;42.702;23.296;2022-10-16T16:36:51;96025.69;;;15.54;48.79
15477;BME280;7840;42.702;23.296;2022-10-16T16:39:19;96026.00;;;15.30;49.34
15477;BME280;7840;42.702;23.296;2022-10-16T16:41:47;96033.44;;;15.28;49.47
15477;BME280;7840;42.702;23.296;2022-10-16T16:44:15;96044.44;;;15.32;49.60
15477;BME280;7840;42.702;23.296;2022-10-16T16:46:45;96049.00;;;15.37;49.44
15477;BME280;7840;42.702;23.296;2022-10-16T16:49:13;96053.69;;;15.24;50.12
15477;BME280;7840;42.702;23.296;2022-10-16T16:51:41;96051.97;;;15.13;50.09
15477;BME280;7840;42.702;23.296;2022-10-16T16:54:26;96058.91;;;15.14;49.78
15477;BME280;7840;42.702;23.296;2022-10-16T16:57:22;96067.31;;;15.01;51.42
15477;BME280;7840;42.702;23.296;2022-10-16T17:00:00;96066.59;;;14.62;51.61
15477;BME280;7840;42.702;23.296;2022-10-16T17:02:43;96074.81;;;14.60;51.62
15477;BME280;7840;42.702;23.296;2022-10-16T17:05:29;96074.34;;;14.63;51.83
15477;BME280;7840;42.702;23.296;2022-10-16T17:08:00;96070.63;;;14.64;52.21
15477;BME280;7840;42.702;23.296;2022-10-16T17:10:31;96076.44;;;14.44;54.02